Ana Sayfa
METAR-TAF:

METAR-TAF

Havaalanları :

San Carlos de Bariloche, Arjantin

Enlem: 41-09S, Boylam: 071-10W, yükseklik: 845 m

Güncel hava durumu gözlemi

Rapor saat 11:00 UTC de 38 dakika önce yapıldı.
Rüzgar batıdan 5 kt
Sıcaklık 5°C
Nem 75%
Basınç 1019 hPa
Görüş mesafesi 10 km veya daha fazla
3500 ft yükseklikte az bulutlu

METAR: SAZS 171100Z 26005KT 9999 FEW035 05/01 Q1019

Saat: 08:38 (11:38 UTC)

Tahmin

Rapor saat 05:00 UTC de 6 saat ve 38 dakika önce yapıldı.
Ayın 17'si saat 06 UTC'den ayın 18'si saat 06 UTC'ye kadar geçerli Tahmin
Rüzgar batı/kuzeybatıdan 15 kt
Görüş mesafesi 10 km veya daha fazla
4000 ft yükseklikte parçalı bulutlu
Dönüşüyor
ayın 17'si saat 07 UTC'den ayın 17'si saat 09 UTC'ye kadar
Rüzgar batı/kuzeybatıdan 10 kt
Görüş mesafesi 10 km veya daha fazla
1500 m altında bulut yok ve kümülonimbus yok

TAF: SAZS 170500Z 1706/1806 30015KT 9999 SCT040 TX14/1720Z TN05/1710Z BECMG 1707/1709 29010KT CAVOK

4.000'den fazla havaalanı için hava durumu gözlemleri ve tahminleri (METAR ve TAF raporları).

Kullanılabilir istasyonlar harita üzerinde sarı ve kırmızı noktalarla gösterilir.

İstasyonun adını görmek için fareyi noktanın üzerinde gezdirin.

Sonrasında hava gözlem ve tahminlerini görmek için tıklayın.

Haritayı değiştirmek için: yaklaştırmak için siyah artı işaretli yeşil düğmeye ve uzaklaştırmak için de eksi işaretli düğmeye hızla tıklayın; bitişik haritalar için yeşil okları kullanın.


METAR-TAF: